Time;durP1;ratioP1;P1;durP2;ratioP2;P2;SDS_P1;SDS_P2;PMS_P1;PMS_P2;Temp;Humidity;BMP_temperature;BMP_pressure;BME280_temperature;BME280_humidity;BME280_pressure;Samples;Min_cycle;Max_cycle;Signal;HPM_P1;HPM_P2
2021/05/22 00:01:40;;;;;;;0.77;0.70;;;;;;;12.84;62.86;97877.66;5107847;28;43172;-76
2021/05/22 00:04:09;;;;;;;0.90;0.70;;;;;;;12.84;62.71;97877.66;5109812;27;42117;-75
2021/05/22 00:06:36;;;;;;;0.93;0.80;;;;;;;12.83;63.22;97875.97;5109345;27;39865;-75
2021/05/22 00:09:04;;;;;;;0.60;0.60;;;;;;;12.83;63.33;97881.28;5090874;28;40613;-75
2021/05/22 00:11:33;;;;;;;0.87;0.67;;;;;;;12.81;62.80;97888.53;5107354;28;43419;-75
2021/05/22 00:14:02;;;;;;;0.90;0.60;;;;;;;12.76;62.85;97866.81;5091718;28;41229;-75
2021/05/22 00:16:29;;;;;;;1.33;0.80;;;;;;;12.72;63.35;97850.34;5107470;28;40617;-76
2021/05/22 00:18:56;;;;;;;0.60;0.60;;;;;;;12.73;63.33;97872.44;5108418;28;41412;-76
2021/05/22 00:21:23;;;;;;;1.00;0.90;;;;;;;12.63;63.20;97874.16;5107448;28;43438;-75
2021/05/22 00:23:50;;;;;;;1.63;0.93;;;;;;;12.70;63.52;97885.97;5109102;27;42027;-75
2021/05/22 00:26:17;;;;;;;0.97;0.80;;;;;;;12.74;63.60;97893.53;5107656;28;40552;-75
2021/05/22 00:28:45;;;;;;;1.80;0.90;;;;;;;12.81;63.86;97894.69;5107488;28;41481;-75
2021/05/22 00:31:12;;;;;;;0.90;0.70;;;;;;;12.83;63.67;97883.94;5107054;28;43491;-75
2021/05/22 00:33:39;;;;;;;0.87;0.67;;;;;;;12.95;63.09;97898.81;5090259;28;42509;-75
2021/05/22 00:36:07;;;;;;;1.00;0.80;;;;;;;12.88;63.03;97884.34;5106927;28;39662;-75
2021/05/22 00:38:34;;;;;;;0.83;0.80;;;;;;;13.01;63.48;97900.91;5106830;28;41658;-76
2021/05/22 00:41:01;;;;;;;1.40;1.17;;;;;;;13.03;63.20;97909.59;5090908;28;42039;-76
2021/05/22 00:43:29;;;;;;;0.90;0.73;;;;;;;13.09;62.99;97925.03;5107987;27;42243;-75
2021/05/22 00:45:57;;;;;;;1.17;0.60;;;;;;;13.14;63.40;97925.47;5105871;28;39698;-75
2021/05/22 00:48:24;;;;;;;2.20;1.00;;;;;;;13.13;64.06;97921.09;5090758;28;41524;-75
2021/05/22 00:50:51;;;;;;;1.00;0.83;;;;;;;13.16;63.73;97923.53;5107292;28;41725;-77
2021/05/22 00:53:19;;;;;;;1.23;0.80;;;;;;;13.19;63.38;97936.56;5108840;27;42970;-75
2021/05/22 00:55:46;;;;;;;1.17;0.70;;;;;;;13.25;63.06;97951.13;5107394;28;40632;-75
2021/05/22 00:58:14;;;;;;;0.80;0.70;;;;;;;13.29;62.97;97953.38;5107596;28;41084;-75
2021/05/22 01:00:44;;;;;;;0.57;0.57;;;;;;;13.33;63.10;97956.63;5106298;28;43220;-75
2021/05/22 01:03:18;;;;;;;1.00;0.90;;;;;;;13.33;63.42;97958.44;5108122;27;42927;-76
2021/05/22 01:05:46;;;;;;;1.43;0.80;;;;;;;13.33;63.46;97958.44;5106472;28;39901;-75
2021/05/22 01:08:17;;;;;;;1.37;0.90;;;;;;;13.28;63.67;97961.50;5107861;28;41406;-76
2021/05/22 01:10:46;;;;;;;1.53;1.03;;;;;;;13.13;65.81;97968.94;5110783;28;42930;-75
2021/05/22 01:13:14;;;;;;;1.00;0.90;;;;;;;12.91;67.21;97969.13;5112024;27;42947;-75
2021/05/22 01:15:43;;;;;;;1.47;0.80;;;;;;;12.75;68.62;97980.22;5112895;27;39972;-74
2021/05/22 01:18:13;;;;;;;2.40;1.10;;;;;;;12.59;68.98;97993.97;5091933;28;41976;-75
2021/05/22 01:20:42;;;;;;;1.93;1.07;;;;;;;12.47;70.43;97995.00;5109654;28;43192;-75
2021/05/22 01:23:20;;;;;;;2.50;1.17;;;;;;;12.37;70.85;98001.19;5109578;28;42883;-74
2021/05/22 01:25:50;;;;;;;1.10;0.83;;;;;;;12.34;71.14;98004.97;5112282;27;40368;-74
2021/05/22 01:28:17;;;;;;;1.07;0.90;;;;;;;12.29;71.94;98007.16;5110423;28;41615;-74
2021/05/22 01:30:46;;;;;;;1.63;1.00;;;;;;;12.28;73.29;98017.91;5110212;27;42664;-75
2021/05/22 01:33:13;;;;;;;0.80;0.80;;;;;;;12.23;72.65;98010.34;5109638;28;41760;-74
2021/05/22 01:35:49;;;;;;;1.00;0.90;;;;;;;12.17;72.87;98022.28;5109601;28;39498;-74
2021/05/22 01:38:17;;;;;;;2.80;1.10;;;;;;;12.13;73.45;98028.81;5110473;28;42219;-75
2021/05/22 01:40:45;;;;;;;1.67;1.10;;;;;;;12.08;73.84;98048.75;5111058;28;42446;-75
2021/05/22 01:43:13;;;;;;;1.00;0.80;;;;;;;11.94;73.66;98057.81;5111654;27;42843;-75
2021/05/22 01:45:42;;;;;;;3.83;0.97;;;;;;;11.83;74.12;98093.16;5109660;28;39777;-74
2021/05/22 01:48:14;;;;;;;2.67;0.60;;;;;;;11.58;73.70;98066.88;5111247;27;42528;-75
2021/05/22 01:50:44;;;;;;;1.77;0.83;;;;;;;11.46;73.60;98089.06;5112112;27;42705;-73
2021/05/22 01:53:13;;;;;;;1.60;0.50;;;;;;;11.30;74.05;98064.69;5109840;28;42304;-74
2021/05/22 01:55:41;;;;;;;3.00;0.60;;;;;;;11.13;73.67;98064.19;5108710;28;40375;-74
2021/05/22 01:58:10;;;;;;;0.93;0.50;;;;;;;11.07;73.42;98056.72;5111211;28;41819;-74
2021/05/22 02:00:39;;;;;;;0.83;0.50;;;;;;;11.05;73.36;98063.09;5111639;27;42798;-74
2021/05/22 02:03:11;;;;;;;0.80;0.60;;;;;;;11.00;73.49;98055.50;5093584;28;42197;-74
2021/05/22 02:05:39;;;;;;;1.40;0.40;;;;;;;10.94;73.03;98060.44;5112023;27;39566;-74
2021/05/22 02:08:10;;;;;;;1.47;0.40;;;;;;;10.94;73.27;98049.84;5112110;27;43156;-74
2021/05/22 02:10:37;;;;;;;1.10;0.30;;;;;;;10.87;73.25;98052.13;5112060;27;43459;-74
2021/05/22 02:13:04;;;;;;;1.43;0.30;;;;;;;10.91;73.28;98047.41;5111014;27;42077;-74
2021/05/22 02:15:33;;;;;;;0.47;0.47;;;;;;;10.89;73.31;98055.47;5112460;27;40030;-74
2021/05/22 02:18:03;;;;;;;0.40;0.40;;;;;;;10.85;73.37;98056.69;5108471;28;42595;-74
2021/05/22 02:20:32;;;;;;;1.43;0.40;;;;;;;10.81;73.28;98055.22;5110938;27;42666;-75
2021/05/22 02:23:01;;;;;;;1.53;0.43;;;;;;;10.80;73.00;98059.69;5110680;27;42025;-74
2021/05/22 02:25:28;;;;;;;0.63;0.40;;;;;;;10.78;73.35;98060.75;5110802;28;39550;-74
2021/05/22 02:27:59;;;;;;;1.13;0.40;;;;;;;10.70;73.58;98049.91;5109266;28;42373;-74
2021/05/22 02:30:26;;;;;;;1.07;0.47;;;;;;;10.62;73.36;98055.78;5093748;28;42436;-74
2021/05/22 02:32:55;;;;;;;2.30;0.43;;;;;;;10.59;73.66;98071.91;5108818;28;42969;-74
2021/05/22 02:35:25;;;;;;;2.20;0.60;;;;;;;10.58;74.35;98069.38;5111234;27;39803;-74
2021/05/22 02:37:54;;;;;;;2.67;0.60;;;;;;;10.53;75.20;98071.50;5110087;28;40558;-74
2021/05/22 02:40:24;;;;;;;1.93;0.90;;;;;;;10.49;75.08;98059.47;5110624;27;42649;-74
2021/05/22 02:42:55;;;;;;;4.03;1.83;;;;;;;10.47;75.14;98056.09;5110910;27;42986;-75
2021/05/22 02:45:25;;;;;;;2.57;0.40;;;;;;;10.39;75.55;98027.53;5093712;28;38705;-76
2021/05/22 02:47:55;;;;;;;4.63;0.77;;;;;;;10.38;75.63;98013.50;5110933;27;41745;-74
2021/05/22 02:50:24;;;;;;;3.60;1.20;;;;;;;10.32;75.73;98029.81;5112193;27;43916;-74
2021/05/22 02:52:54;;;;;;;1.40;0.60;;;;;;;10.29;76.09;98035.31;5108941;28;42386;-74
2021/05/22 02:55:22;;;;;;;2.13;0.90;;;;;;;10.22;76.30;98026.16;5111682;27;40992;-75
2021/05/22 02:57:51;;;;;;;1.13;0.70;;;;;;;10.23;76.36;98027.84;5110598;27;41549;-75
2021/05/22 03:00:21;;;;;;;1.80;0.60;;;;;;;10.19;76.92;98022.91;5110268;28;41420;-74
2021/05/22 03:02:48;;;;;;;2.10;0.60;;;;;;;10.21;76.89;98029.75;5110022;27;41752;-75
2021/05/22 03:05:16;;;;;;;2.20;0.80;;;;;;;10.20;77.16;98022.78;5110892;27;39975;-73
2021/05/22 03:07:45;;;;;;;1.00;0.67;;;;;;;10.20;76.90;98030.72;5109941;28;41334;-74
2021/05/22 03:10:13;;;;;;;2.03;0.70;;;;;;;10.19;76.59;98028.19;5109835;28;42642;-74
2021/05/22 03:12:40;;;;;;;0.83;0.60;;;;;;;10.21;76.70;98029.75;5110684;27;43059;-73
2021/05/22 03:15:09;;;;;;;1.30;0.70;;;;;;;10.23;76.92;98021.72;5109221;28;40720;-75
2021/05/22 03:17:36;;;;;;;1.77;0.57;;;;;;;10.23;76.67;98019.91;5109277;28;42418;-74
2021/05/22 03:20:06;;;;;;;1.17;0.67;;;;;;;10.29;76.63;98021.25;5110293;27;43345;-74
2021/05/22 03:22:33;;;;;;;1.33;0.80;;;;;;;10.29;76.43;98011.50;5110417;27;42299;-74
2021/05/22 03:25:01;;;;;;;1.07;0.67;;;;;;;10.26;76.82;98017.03;5143014;27;39713;-74
2021/05/22 03:27:28;;;;;;;0.73;0.60;;;;;;;10.19;76.51;98013.16;5110281;27;41662;-74
2021/05/22 03:29:57;;;;;;;1.00;0.87;;;;;;;10.10;76.79;98011.16;5108764;28;41951;-74
2021/05/22 03:32:24;;;;;;;1.30;0.63;;;;;;;10.00;76.91;98010.16;5110086;27;42950;-74
2021/05/22 03:34:51;;;;;;;1.07;0.50;;;;;;;9.89;77.40;98012.75;5109184;28;39937;-74
2021/05/22 03:37:18;;;;;;;2.63;0.50;;;;;;;9.81;77.02;98013.28;5110012;27;41333;-74
2021/05/22 03:39:46;;;;;;;0.77;0.60;;;;;;;9.72;77.43;98013.97;5110049;27;42620;-73
2021/05/22 03:42:14;;;;;;;2.40;0.80;;;;;;;9.63;77.52;98023.41;5091425;28;42189;-74
2021/05/22 03:44:41;;;;;;;0.70;0.70;;;;;;;9.57;77.28;98018.56;5110074;27;40704;-73
2021/05/22 03:47:09;;;;;;;1.07;0.53;;;;;;;9.44;77.51;98011.63;5109582;27;41768;-73
2021/05/22 03:49:36;;;;;;;0.87;0.40;;;;;;;9.47;77.74;98020.19;5109525;27;43038;-74
2021/05/22 03:52:03;;;;;;;1.03;0.60;;;;;;;9.38;78.05;98012.91;5108072;28;42848;-73
2021/05/22 03:54:30;;;;;;;0.93;0.57;;;;;;;9.42;77.69;98034.66;5108826;28;40663;-74
2021/05/22 03:56:57;;;;;;;1.10;0.60;;;;;;;9.37;78.05;98035.00;5108003;28;41052;-74
2021/05/22 03:59:25;;;;;;;3.63;0.80;;;;;;;9.39;78.00;98035.75;5108450;28;42447;-73
2021/05/22 04:01:53;;;;;;;1.10;0.67;;;;;;;9.48;78.51;98050.94;5107813;28;42388;-74
2021/05/22 04:04:20;;;;;;;0.80;0.60;;;;;;;9.57;78.21;98055.56;5109850;27;40610;-74
2021/05/22 04:06:47;;;;;;;1.30;0.70;;;;;;;9.65;77.75;98063.78;5109614;27;41386;-73
2021/05/22 04:09:14;;;;;;;1.37;0.60;;;;;;;9.72;77.92;98065.03;5110126;27;42541;-74
2021/05/22 04:11:41;;;;;;;1.50;0.70;;;;;;;9.79;77.61;98070.72;5143116;27;42281;-74
2021/05/22 04:14:08;;;;;;;2.20;0.73;;;;;;;9.85;77.73;98064.16;5109441;27;40568;-74
2021/05/22 04:16:36;;;;;;;2.30;0.80;;;;;;;9.85;77.41;98054.44;5109627;27;41560;-74
2021/05/22 04:19:04;;;;;;;1.53;0.73;;;;;;;9.84;77.66;98062.47;5108209;28;42304;-74
2021/05/22 04:21:31;;;;;;;1.83;0.80;;;;;;;9.78;77.74;98060.25;5109998;27;42957;-74
2021/05/22 04:23:58;;;;;;;2.50;0.70;;;;;;;9.75;77.91;98057.84;5109115;27;39862;-74
2021/05/22 04:26:25;;;;;;;1.97;1.00;;;;;;;9.71;78.10;98057.22;5108701;27;41770;-73
2021/05/22 04:28:53;;;;;;;1.50;0.93;;;;;;;9.71;78.16;98059.88;5107277;28;42598;-74
2021/05/22 04:31:20;;;;;;;1.13;1.03;;;;;;;9.77;78.11;98061.25;5105769;27;43787;-74
2021/05/22 04:33:48;;;;;;;1.77;0.90;;;;;;;9.84;78.03;98062.47;5102605;27;41307;-74
2021/05/22 04:36:15;;;;;;;0.97;0.77;;;;;;;9.86;77.57;98060.56;5103872;28;42335;-74
2021/05/22 04:38:42;;;;;;;1.90;1.00;;;;;;;9.95;77.95;98075.75;5104192;28;42425;-74
2021/05/22 04:41:09;;;;;;;2.40;1.10;;;;;;;10.03;77.55;98068.09;5106759;27;42584;-74
2021/05/22 04:43:36;;;;;;;2.00;0.90;;;;;;;10.11;77.90;98072.84;5104632;28;39783;-73
2021/05/22 04:46:03;;;;;;;4.83;1.10;;;;;;;10.16;77.21;98074.19;5106392;28;41491;-74
2021/05/22 04:48:30;;;;;;;2.07;1.33;;;;;;;10.25;77.18;98078.03;5106286;28;42674;-75
2021/05/22 04:50:58;;;;;;;1.10;1.00;;;;;;;10.31;77.11;98085.50;5107656;28;41568;-74
2021/05/22 04:53:26;;;;;;;1.87;0.70;;;;;;;10.36;77.01;98084.22;5108667;27;39706;-74
2021/05/22 04:55:53;;;;;;;1.63;1.10;;;;;;;10.42;77.05;98078.44;5108163;27;42351;-74
2021/05/22 04:58:20;;;;;;;2.97;1.07;;;;;;;10.48;76.90;98073.66;5107369;27;42714;-74
2021/05/22 05:00:47;;;;;;;2.47;0.80;;;;;;;10.58;77.07;98079.97;5108632;27;42870;-74
2021/05/22 05:03:14;;;;;;;2.13;1.10;;;;;;;10.61;76.87;98080.59;5107426;28;40188;-73
2021/05/22 05:05:41;;;;;;;2.97;1.00;;;;;;;10.70;76.67;98081.69;5109221;27;41661;-74
2021/05/22 05:08:09;;;;;;;1.63;1.20;;;;;;;10.75;76.41;98071.59;5106825;28;42380;-75
2021/05/22 05:10:36;;;;;;;3.20;1.13;;;;;;;10.81;76.78;98076.41;5108352;28;40672;-74
2021/05/22 05:13:03;;;;;;;3.23;1.07;;;;;;;10.87;76.22;98081.25;5108089;27;39907;-73
2021/05/22 05:15:30;;;;;;;2.43;1.20;;;;;;;10.87;75.49;98075.97;5109003;27;42529;-74
2021/05/22 05:17:57;;;;;;;4.53;1.03;;;;;;;10.95;75.61;98078.88;5105222;28;42754;-73
2021/05/22 05:20:24;;;;;;;3.33;1.20;;;;;;;10.97;75.51;98074.31;5107485;28;41421;-74
2021/05/22 05:22:52;;;;;;;2.90;1.10;;;;;;;11.06;75.35;98081.53;5106130;28;41768;-75
2021/05/22 05:25:20;;;;;;;3.93;1.67;;;;;;;11.18;75.59;98084.19;5108264;27;42351;-74
2021/05/22 05:27:47;;;;;;;4.00;1.53;;;;;;;11.26;75.10;98084.44;5107076;28;42525;-74
2021/05/22 05:30:15;;;;;;;2.80;0.97;;;;;;;11.33;74.76;98088.31;5107616;27;42181;-75
2021/05/22 05:32:42;;;;;;;2.33;0.93;;;;;;;11.39;74.76;98093.97;5090080;28;38970;-74
2021/05/22 05:35:10;;;;;;;3.17;1.10;;;;;;;11.53;74.35;98100.84;5104119;28;41510;-74
2021/05/22 05:37:38;;;;;;;2.97;1.43;;;;;;;11.68;74.17;98099.66;5106086;28;43368;-75
2021/05/22 05:40:07;;;;;;;17.23;11.60;;;;;;;11.69;73.29;98096.03;5106888;27;41920;-74
2021/05/22 05:42:35;;;;;;;7.93;4.90;;;;;;;11.73;73.61;98101.94;5107342;27;40062;-74
2021/05/22 05:45:03;;;;;;;3.97;2.20;;;;;;;11.83;73.27;98093.16;5105850;28;42299;-75
2021/05/22 05:47:30;;;;;;;5.23;1.47;;;;;;;11.96;72.95;98092.19;5100478;28;44397;-73
2021/05/22 05:49:57;;;;;;;2.87;1.30;;;;;;;12.03;72.64;98101.34;5106172;28;41990;-74
2021/05/22 05:52:25;;;;;;;2.60;1.33;;;;;;;12.28;72.54;98092.22;5106941;27;40468;-74
2021/05/22 05:54:52;;;;;;;3.57;1.23;;;;;;;12.41;72.20;98093.75;5108028;27;41828;-75
2021/05/22 05:57:19;;;;;;;3.53;0.93;;;;;;;12.40;70.26;98097.38;5111045;27;42982;-74
2021/05/22 05:59:47;;;;;;;2.13;1.00;;;;;;;12.36;70.40;98080.03;5109829;28;42582;-74
2021/05/22 06:02:14;;;;;;;3.43;0.90;;;;;;;12.57;70.01;98110.13;5109468;28;39861;-74
2021/05/22 06:04:41;;;;;;;2.33;1.10;;;;;;;12.75;70.20;98101.59;5110754;28;40619;-74
2021/05/22 06:07:08;;;;;;;5.20;1.17;;;;;;;12.87;69.28;98093.44;5110951;27;42802;-74
2021/05/22 06:09:36;;;;;;;2.90;1.20;;;;;;;13.00;68.02;98100.38;5093296;28;40585;-74
2021/05/22 06:12:04;;;;;;;2.77;1.10;;;;;;;13.19;67.14;98090.75;5108394;28;41635;-74
2021/05/22 06:14:31;;;;;;;4.50;1.30;;;;;;;13.39;67.18;98098.81;5110626;28;40496;-74
2021/05/22 06:16:59;;;;;;;3.30;1.20;;;;;;;13.49;67.02;98091.75;5091527;28;42806;-75
2021/05/22 06:19:27;;;;;;;3.50;1.10;;;;;;;13.55;66.69;98101.84;5093689;28;42146;-75
2021/05/22 06:21:54;;;;;;;3.93;0.90;;;;;;;13.76;65.22;98104.47;5109500;28;39902;-74
2021/05/22 06:24:21;;;;;;;2.87;1.20;;;;;;;13.89;64.11;98100.59;5111081;27;42267;-74
2021/05/22 06:26:48;;;;;;;3.50;1.50;;;;;;;14.07;63.05;98102.63;5109033;28;43289;-74
2021/05/22 06:29:15;;;;;;;3.83;1.10;;;;;;;14.13;62.26;98104.72;5108863;28;43033;-75
2021/05/22 06:31:42;;;;;;;4.43;1.03;;;;;;;14.24;62.61;98104.59;5110203;28;39896;-75
2021/05/22 06:34:10;;;;;;;3.43;1.10;;;;;;;14.25;61.73;98107.13;5107863;28;42385;-76
2021/05/22 06:36:37;;;;;;;2.43;1.20;;;;;;;14.33;60.75;98119.78;5109689;28;42531;-75
2021/05/22 06:39:05;;;;;;;3.13;1.20;;;;;;;14.34;60.58;98124.13;5109457;28;42605;-76
2021/05/22 06:41:32;;;;;;;4.73;1.50;;;;;;;14.25;59.69;98124.94;5091857;28;39072;-76
2021/05/22 06:44:00;;;;;;;6.23;1.30;;;;;;;14.27;58.50;98120.31;5109992;27;41651;-75
2021/05/22 06:49:32;;;;;;;4.23;1.20;;;;;;;14.32;58.57;98112.78;5106941;28;41325;-75
2021/05/22 06:51:59;;;;;;;31.63;23.13;;;;;;;14.46;58.97;98117.75;5106194;28;40209;-73
2021/05/22 06:54:29;;;;;;;5.00;1.40;;;;;;;14.62;57.25;98131.34;5107872;28;41592;-74
2021/05/22 06:56:56;;;;;;;3.63;1.17;;;;;;;14.78;56.79;98129.97;5140092;27;43454;-75
2021/05/22 06:59:23;;;;;;;5.10;1.60;;;;;;;14.66;56.26;98126.59;5105822;28;42689;-76
2021/05/22 07:01:50;;;;;;;5.10;1.20;;;;;;;14.77;55.34;98160.25;5104930;28;40842;-75
2021/05/22 07:04:17;;;;;;;6.63;1.40;;;;;;;14.93;55.19;98149.88;5099706;28;42700;-75
2021/05/22 07:06:45;;;;;;;7.50;1.50;;;;;;;15.01;55.78;98150.00;5102959;27;43300;-76
2021/05/22 07:09:12;;;;;;;4.63;1.20;;;;;;;14.99;56.25;98154.66;5107416;27;42950;-76
2021/05/22 07:11:41;;;;;;;7.07;1.40;;;;;;;15.17;55.85;98158.31;5088745;28;38994;-76
2021/05/22 07:14:09;;;;;;;3.37;1.17;;;;;;;15.05;54.04;98159.44;5105985;27;41409;-75
2021/05/22 07:16:36;;;;;;;4.40;1.20;;;;;;;15.17;54.04;98163.63;5106317;27;43199;-75
2021/05/22 07:19:03;;;;;;;6.40;1.40;;;;;;;16.09;52.97;98171.84;5106857;27;42907;-75
2021/05/22 07:21:30;;;;;;;8.10;1.50;;;;;;;16.83;52.00;98172.59;5104433;28;40616;-75
2021/05/22 07:23:58;;;;;;;4.47;1.30;;;;;;;16.62;50.27;98149.78;5106460;27;42232;-75
2021/05/22 07:26:26;;;;;;;3.80;1.33;;;;;;;16.61;50.15;98191.69;5104794;28;43362;-75
2021/05/22 07:28:54;;;;;;;3.43;1.23;;;;;;;16.71;51.41;98176.47;5104757;28;42013;-75
2021/05/22 07:31:21;;;;;;;3.43;1.57;;;;;;;18.08;48.45;98200.03;5102090;28;39830;-76
2021/05/22 07:33:50;;;;;;;6.73;1.07;;;;;;;19.02;46.61;98224.94;5105548;28;40668;-76
2021/05/22 07:36:18;;;;;;;4.20;1.37;;;;;;;19.57;42.34;98235.06;5104273;28;43201;-76
2021/05/22 07:38:45;;;;;;;2.93;1.20;;;;;;;20.53;40.27;98253.09;5105350;27;42305;-76
2021/05/22 07:41:13;;;;;;;4.70;1.10;;;;;;;20.17;42.95;98228.44;5104040;27;40447;-77
2021/05/22 07:43:41;;;;;;;4.93;1.60;;;;;;;20.03;42.75;98235.38;5103362;28;41723;-77
2021/05/22 07:46:08;;;;;;;5.20;1.60;;;;;;;19.82;42.81;98210.88;5088611;28;42005;-77
2021/05/22 07:48:35;;;;;;;5.10;1.47;;;;;;;19.15;42.08;98228.97;5104305;28;42805;-77
2021/05/22 07:51:02;;;;;;;3.30;1.33;;;;;;;18.55;43.04;98237.13;5103830;28;41090;-76
2021/05/22 07:53:30;;;;;;;4.10;1.10;;;;;;;19.47;42.12;98234.38;5105245;27;42354;-77
2021/05/22 07:55:57;;;;;;;3.50;1.00;;;;;;;19.96;39.72;98245.97;5102271;27;43003;-76
2021/05/22 07:58:25;;;;;;;4.97;1.33;;;;;;;20.34;38.40;98257.00;5105476;27;41717;-76
2021/05/22 08:00:52;;;;;;;5.17;1.50;;;;;;;20.11;39.31;98248.81;5104530;27;40589;-77
2021/05/22 08:03:19;;;;;;;5.10;1.30;;;;;;;20.24;40.25;98249.13;5088391;28;41464;-77
2021/05/22 08:05:47;;;;;;;3.33;1.03;;;;;;;20.69;38.42;98253.03;5103554;28;42583;-77
2021/05/22 08:08:14;;;;;;;2.73;1.20;;;;;;;21.67;37.41;98253.31;5105202;27;42260;-76
2021/05/22 08:10:44;;;;;;;3.67;1.40;;;;;;;21.79;36.78;98259.94;5104531;28;40356;-78
2021/05/22 08:13:12;;;;;;;3.23;1.07;;;;;;;21.01;36.80;98260.97;5103561;28;41491;-76
2021/05/22 08:15:41;;;;;;;3.13;1.00;;;;;;;21.15;36.85;98249.44;5104150;28;43469;-77
2021/05/22 08:18:08;;;;;;;4.97;1.10;;;;;;;20.98;37.57;98258.63;5084496;28;40843;-77
2021/05/22 08:20:42;;;;;;;3.37;1.23;;;;;;;20.82;37.46;98261.38;5103755;28;39716;-76
2021/05/22 08:23:11;;;;;;;4.83;1.30;;;;;;;20.19;37.72;98251.47;5083659;28;42323;-76
2021/05/22 08:25:38;;;;;;;2.87;1.27;;;;;;;19.83;37.61;98250.19;5085643;28;42271;-77
2021/05/22 08:28:07;;;;;;;4.17;1.30;;;;;;;20.62;37.69;98257.44;5103473;27;43379;-77
2021/05/22 08:30:36;;;;;;;4.80;1.53;;;;;;;21.09;37.03;98250.16;5087034;28;40168;-76
2021/05/22 08:33:15;;;;;;;3.83;1.17;;;;;;;21.56;35.76;98259.13;5087256;28;42409;-76
2021/05/22 08:35:43;;;;;;;2.50;1.30;;;;;;;22.50;34.02;98267.53;5086426;28;41468;-77
2021/05/22 08:38:11;;;;;;;3.43;1.13;;;;;;;23.78;32.73;98273.28;5102640;28;20230;-77
2021/05/22 08:40:38;;;;;;;1.57;0.70;;;;;;;26.08;30.44;98261.97;5103758;28;41347;-77
2021/05/22 08:43:08;;;;;;;5.87;1.30;;;;;;;28.17;27.54;98299.44;5099615;28;41347;-77
2021/05/22 08:45:35;;;;;;;2.27;1.10;;;;;;;30.37;24.94;98297.44;5098721;28;43347;-78
2021/05/22 08:48:02;;;;;;;3.03;1.10;;;;;;;30.19;24.42;98312.00;5103658;28;43514;-77
2021/05/22 08:50:30;;;;;;;2.63;1.30;;;;;;;29.77;24.17;98304.88;5085295;28;39331;-78
2021/05/22 08:52:58;;;;;;;3.67;1.30;;;;;;;28.47;24.99;98296.91;5105406;27;41038;-77
2021/05/22 08:55:26;;;;;;;4.97;1.13;;;;;;;26.47;26.75;98278.22;5102376;28;42533;-75
2021/05/22 08:57:53;;;;;;;3.37;0.90;;;;;;;25.05;28.50;98253.16;5103522;27;43002;-78
2021/05/22 09:00:23;;;;;;;3.97;1.40;;;;;;;24.70;29.33;98263.19;5105150;27;39478;-77
2021/05/22 09:02:52;;;;;;;3.13;1.50;;;;;;;23.99;29.42;98248.91;5103222;27;42123;-78
2021/05/22 09:05:22;;;;;;;1.83;0.93;;;;;;;23.35;30.72;98233.75;5104602;27;42678;-77
2021/05/22 09:07:51;;;;;;;4.70;1.93;;;;;;;22.54;32.01;98214.88;5104889;27;42229;-76
2021/05/22 09:10:23;;;;;;;5.40;1.27;;;;;;;21.79;32.86;98236.53;5086419;28;40379;-77
2021/05/22 09:12:52;;;;;;;4.23;1.33;;;;;;;21.02;33.74;98227.63;5104130;27;41473;-76
2021/05/22 09:15:22;;;;;;;2.37;1.20;;;;;;;20.43;35.47;98216.47;5105521;27;43387;-77
2021/05/22 09:17:52;;;;;;;4.47;1.20;;;;;;;20.17;36.22;98198.88;5101092;28;42129;-77
2021/05/22 09:20:24;;;;;;;3.93;1.10;;;;;;;19.87;36.74;98187.88;5101751;27;41253;-76
2021/05/22 09:22:58;;;;;;;2.40;1.03;;;;;;;19.75;36.91;98207.22;5100644;28;42771;-77
2021/05/22 09:25:26;;;;;;;2.77;1.30;;;;;;;19.69;38.22;98201.50;5102224;28;41651;-77
2021/05/22 09:27:58;;;;;;;5.07;1.20;;;;;;;19.69;37.21;98204.19;5101844;28;42545;-77
2021/05/22 09:30:29;;;;;;;5.47;1.40;;;;;;;19.62;37.28;98205.88;5109327;27;39760;-76
2021/05/22 09:32:57;;;;;;;3.40;1.10;;;;;;;19.63;37.88;98206.72;5111558;27;41727;-76
2021/05/22 09:35:25;;;;;;;3.03;0.80;;;;;;;19.53;38.13;98201.53;5109493;28;43581;-77
2021/05/22 09:37:54;;;;;;;3.07;1.10;;;;;;;19.48;38.61;98192.25;5110585;28;42989;-77
2021/05/22 09:40:24;;;;;;;5.33;1.50;;;;;;;19.58;38.21;98198.31;5092531;28;39946;-78
2021/05/22 09:42:52;;;;;;;4.67;1.00;;;;;;;20.03;36.71;98213.84;5108121;28;41841;-77
2021/05/22 09:45:22;;;;;;;2.70;1.10;;;;;;;20.53;36.97;98210.03;5108749;28;42748;-76
2021/05/22 09:47:49;;;;;;;3.67;1.00;;;;;;;21.22;34.40;98229.91;5110078;28;42792;-76
2021/05/22 09:50:34;;;;;;;2.60;1.17;;;;;;;22.90;33.33;98222.22;5110912;28;42544;-77
2021/05/22 09:53:03;;;;;;;2.77;1.03;;;;;;;24.88;29.69;98259.09;5116910;27;41692;-77
2021/05/22 09:55:31;;;;;;;2.57;1.27;;;;;;;24.55;29.45;98259.75;5112409;27;42421;-77
2021/05/22 09:57:58;;;;;;;3.60;1.03;;;;;;;24.09;29.66;98258.59;5110215;28;41475;-77
2021/05/22 10:00:27;;;;;;;2.43;1.00;;;;;;;23.42;28.48;98215.72;5111246;28;39611;-76
2021/05/22 10:02:56;;;;;;;3.97;1.47;;;;;;;23.25;29.85;98245.69;5092708;28;40433;-78
2021/05/22 10:05:25;;;;;;;3.53;1.17;;;;;;;22.66;28.84;98254.88;5110735;28;43578;-77
2021/05/22 10:07:54;;;;;;;4.80;0.90;;;;;;;22.21;30.25;98238.69;5109833;28;42944;-78
2021/05/22 10:10:23;;;;;;;2.57;0.77;;;;;;;21.84;32.27;98238.69;5145559;27;39722;-76
2021/05/22 10:12:51;;;;;;;2.47;0.90;;;;;;;21.57;31.31;98255.41;5110288;28;41767;-79
2021/05/22 10:15:19;;;;;;;3.43;1.00;;;;;;;21.31;31.79;98247.69;5112415;27;43058;-79
2021/05/22 10:17:50;;;;;;;2.33;1.03;;;;;;;21.42;31.70;98245.41;5093861;28;41406;-78
2021/05/22 10:20:17;;;;;;;3.33;1.57;;;;;;;21.48;30.90;98233.09;5111391;28;39996;-80
2021/05/22 10:22:45;;;;;;;2.53;1.10;;;;;;;22.00;30.71;98248.53;5109969;28;41834;-79
2021/05/22 10:25:12;;;;;;;2.97;1.03;;;;;;;22.72;30.79;98262.25;5110909;28;42401;-79
2021/05/22 10:27:39;;;;;;;2.27;1.27;;;;;;;22.53;30.56;98234.78;5128069;27;41029;-79
2021/05/22 10:30:10;;;;;;;3.13;1.23;;;;;;;22.28;30.04;98256.81;5111189;28;39135;-78
2021/05/22 10:32:38;;;;;;;2.10;0.93;;;;;;;21.94;30.71;98251.91;5110841;28;41644;-80
2021/05/22 10:35:10;;;;;;;1.90;0.77;;;;;;;21.56;31.80;98224.94;5109941;28;43492;-81
2021/05/22 10:37:44;;;;;;;3.37;1.13;;;;;;;21.37;31.04;98252.38;5110767;28;42242;-80
2021/05/22 10:40:14;;;;;;;4.33;1.37;;;;;;;21.27;31.05;98262.50;5111553;27;39719;-83
2021/05/22 10:42:47;;;;;;;4.83;1.50;;;;;;;21.14;31.06;98244.25;5093002;28;42198;-79
2021/05/22 10:45:33;;;;;;;4.80;1.43;;;;;;;21.03;31.70;98258.09;5110204;28;42148;-82
2021/05/22 10:48:02;;;;;;;8.47;1.10;;;;;;;20.94;30.18;98267.22;5091921;28;41109;-80
2021/05/22 10:50:40;;;;;;;6.73;1.40;;;;;;;21.30;31.32;98267.56;5093068;28;39153;-79
2021/05/22 10:53:30;;;;;;;3.50;1.23;;;;;;;21.88;30.45;98282.31;5110322;28;41490;-79
2021/05/22 10:56:06;;;;;;;4.33;1.10;;;;;;;22.65;30.51;98248.66;5109485;28;43414;-81
2021/05/22 10:58:34;;;;;;;4.33;1.00;;;;;;;22.80;29.87;98265.72;5110068;28;41642;-80
2021/05/22 11:01:31;;;;;;;3.03;0.97;;;;;;;22.91;28.78;98288.69;5110156;27;40756;-79
2021/05/22 11:04:31;;;;;;;3.03;1.20;;;;;;;22.80;28.55;98272.97;5109981;28;40780;-79
2021/05/22 11:07:01;;;;;;;6.10;1.10;;;;;;;22.51;28.89;98263.81;5092492;28;41796;-81
2021/05/22 11:09:53;;;;;;;4.83;1.07;;;;;;;22.13;28.97;98238.75;5093508;28;41493;-79
2021/05/22 11:12:44;;;;;;;5.93;1.20;;;;;;;21.90;30.52;98264.06;5083349;28;43002;-80
2021/05/22 11:15:50;;;;;;;2.00;1.07;;;;;;;21.65;30.24;98250.78;5089700;28;40607;-81
2021/05/22 11:18:23;;;;;;;2.63;1.07;;;;;;;21.47;30.48;98271.84;5089241;28;42661;-81
2021/05/22 11:21:19;;;;;;;5.17;1.20;;;;;;;21.68;30.18;98260.38;5088976;28;42828;-80
2021/05/22 11:24:11;;;;;;;4.87;1.20;;;;;;;22.13;29.32;98251.44;5090723;28;39483;-80
2021/05/22 11:26:56;;;;;;;5.07;1.03;;;;;;;22.27;30.53;98242.50;5072340;28;42589;-79
2021/05/22 11:29:40;;;;;;;2.37;1.10;;;;;;;22.30;29.92;98261.03;5091422;28;42927;-80
2021/05/22 11:32:45;;;;;;;3.47;0.93;;;;;;;21.97;28.83;98260.47;5110440;28;42024;-82
2021/05/22 11:35:46;;;;;;;2.83;0.80;;;;;;;22.10;29.62;98265.28;5109626;28;41498;-80
2021/05/22 11:38:38;;;;;;;2.10;0.80;;;;;;;22.63;29.47;98249.84;5108657;28;43709;-81
2021/05/22 11:41:11;;;;;;;5.73;1.13;;;;;;;22.46;29.72;98258.16;5108509;28;43239;-82
2021/05/22 11:43:42;;;;;;;3.50;0.93;;;;;;;22.10;29.68;98257.19;5093074;28;41637;-81
2021/05/22 11:46:12;;;;;;;4.10;0.87;;;;;;;22.16;29.52;98227.63;5135369;27;39759;-79
2021/05/22 11:48:41;;;;;;;3.33;1.20;;;;;;;22.10;29.32;98262.59;5105826;28;40834;-81